createdAt,value
2017-12-01T00:01:50.925Z,65.53
2017-12-01T00:04:19.283Z,69.80
2017-12-01T00:06:48.131Z,69.18
2017-12-01T00:09:16.459Z,70.43
2017-12-01T00:11:44.773Z,74.28
2017-12-01T00:14:13.880Z,78.37
2017-12-01T00:16:43.021Z,74.43
2017-12-01T00:19:11.340Z,79.03
2017-12-01T00:21:39.706Z,71.65
2017-12-01T00:24:08.081Z,69.75
2017-12-01T00:26:36.365Z,75.85
2017-12-01T00:29:05.069Z,70.07
2017-12-01T00:31:34.144Z,79.65
2017-12-01T00:34:02.481Z,73.53
2017-12-01T00:36:30.823Z,67.72
2017-12-01T00:38:59.914Z,63.05
2017-12-01T00:41:28.271Z,74.35
2017-12-01T00:43:56.617Z,74.95
2017-12-01T00:46:24.952Z,85.32
2017-12-01T00:48:54.033Z,91.95
2017-12-01T00:51:22.584Z,73.10
2017-12-01T00:53:50.906Z,79.97
2017-12-01T00:56:20.003Z,71.35
2017-12-01T00:58:49.168Z,70.65
2017-12-01T01:01:17.531Z,75.55
2017-12-01T01:03:45.864Z,74.05
2017-12-01T01:06:15.001Z,70.20
2017-12-01T01:08:43.347Z,78.28
2017-12-01T01:11:11.725Z,72.93
2017-12-01T01:13:40.445Z,82.00
2017-12-01T01:16:08.780Z,78.80
2017-12-01T01:18:37.870Z,86.43
2017-12-01T01:21:06.996Z,83.97
2017-12-01T01:23:35.304Z,87.55
2017-12-01T01:26:03.627Z,89.55
2017-12-01T01:28:32.014Z,79.90
2017-12-01T01:31:00.387Z,78.53
2017-12-01T01:33:28.721Z,97.72
2017-12-01T01:35:57.420Z,73.50
2017-12-01T01:38:25.735Z,95.50
2017-12-01T01:40:54.067Z,79.60
2017-12-01T01:43:22.757Z,80.75
2017-12-01T01:45:51.140Z,72.47
2017-12-01T01:48:19.489Z,80.38
2017-12-01T01:50:47.816Z,77.97
2017-12-01T01:53:16.161Z,80.00
2017-12-01T01:55:44.566Z,69.97
2017-12-01T01:58:13.105Z,74.03
2017-12-01T02:00:41.452Z,82.60
2017-12-01T02:03:10.541Z,80.60
2017-12-01T02:05:38.891Z,80.15
2017-12-01T02:08:07.233Z,72.97
2017-12-01T02:10:35.595Z,61.37
2017-12-01T02:13:04.726Z,68.53
2017-12-01T02:15:33.028Z,63.95
2017-12-01T02:18:01.386Z,65.85
2017-12-01T02:20:29.964Z,66.93
2017-12-01T02:22:58.268Z,69.15
2017-12-01T02:25:26.618Z,59.22
2017-12-01T02:27:54.952Z,63.13
2017-12-01T02:30:23.300Z,64.57
2017-12-01T02:32:51.659Z,63.70
2017-12-01T02:35:20.025Z,72.85
2017-12-01T02:37:48.362Z,57.22
2017-12-01T02:40:16.814Z,65.15
2017-12-01T02:42:45.980Z,61.45
2017-12-01T02:45:14.760Z,61.78
2017-12-01T02:47:43.081Z,68.68
2017-12-01T02:50:11.422Z,64.20
2017-12-01T02:52:39.793Z,65.80
2017-12-01T02:55:08.192Z,53.63
2017-12-01T02:57:36.519Z,66.85
2017-12-01T03:00:04.834Z,58.85
2017-12-01T03:02:33.145Z,54.55
2017-12-01T03:05:01.624Z,54.78
2017-12-01T03:07:30.043Z,57.58
2017-12-01T03:09:58.333Z,59.33
2017-12-01T03:12:27.456Z,59.15
2017-12-01T03:14:56.552Z,65.37
2017-12-01T03:17:24.884Z,55.45
2017-12-01T03:19:53.217Z,64.43
2017-12-01T03:22:21.536Z,57.10
2017-12-01T03:24:49.856Z,55.50
2017-12-01T03:27:18.416Z,51.00
2017-12-01T03:29:46.925Z,53.60
2017-12-01T03:32:15.255Z,52.53
2017-12-01T03:34:43.624Z,55.05
2017-12-01T03:37:12.094Z,56.17
2017-12-01T03:39:40.292Z,66.35
2017-12-01T03:42:08.634Z,55.40
2017-12-01T03:44:36.979Z,56.75
2017-12-01T03:47:05.290Z,64.35
2017-12-01T03:49:33.819Z,63.53
2017-12-01T03:52:02.196Z,58.35
2017-12-01T03:54:30.552Z,61.13
2017-12-01T03:56:58.907Z,49.88
2017-12-01T03:59:27.219Z,50.72
2017-12-01T04:01:55.534Z,56.47
2017-12-01T04:04:23.886Z,58.33
2017-12-01T04:06:52.236Z,55.15
2017-12-01T04:09:20.563Z,56.17
2017-12-01T04:11:49.006Z,61.08
2017-12-01T04:14:17.351Z,58.47
2017-12-01T04:16:45.672Z,62.40
2017-12-01T04:19:14.036Z,49.92
2017-12-01T04:21:42.360Z,47.60
2017-12-01T04:24:10.676Z,48.38
2017-12-01T04:26:39.043Z,56.45
2017-12-01T04:29:07.345Z,44.95
2017-12-01T04:31:35.695Z,51.42
2017-12-01T04:34:04.527Z,52.72
2017-12-01T04:36:32.852Z,58.15
2017-12-01T04:39:01.171Z,44.70
2017-12-01T04:41:29.519Z,49.85
2017-12-01T04:43:57.877Z,47.22
2017-12-01T04:46:26.972Z,54.25
2017-12-01T04:48:56.085Z,55.42
2017-12-01T04:51:25.200Z,47.22
2017-12-01T04:53:53.553Z,43.13
2017-12-01T04:56:21.997Z,51.97
2017-12-01T04:58:50.344Z,57.00
2017-12-01T05:01:18.701Z,51.33
2017-12-01T05:03:47.067Z,41.90
2017-12-01T05:06:15.374Z,42.92
2017-12-01T05:08:43.845Z,44.38
2017-12-01T05:11:12.194Z,42.42
2017-12-01T05:13:40.544Z,44.25
2017-12-01T05:16:08.870Z,43.72
2017-12-01T05:18:37.268Z,43.97
2017-12-01T05:21:05.575Z,50.03
2017-12-01T05:23:33.882Z,39.88
2017-12-01T05:26:02.286Z,38.80
2017-12-01T05:28:30.642Z,39.28
2017-12-01T05:30:58.944Z,40.45
2017-12-01T05:33:27.317Z,37.60
2017-12-01T05:35:55.649Z,43.60
2017-12-01T05:38:23.995Z,39.47
2017-12-01T05:40:52.473Z,42.13
2017-12-01T05:43:20.777Z,39.88
2017-12-01T05:45:49.109Z,43.13
2017-12-01T05:48:17.475Z,42.92
2017-12-01T05:50:46.566Z,39.92
2017-12-01T05:53:15.673Z,47.95
2017-12-01T05:55:44.790Z,45.20
2017-12-01T05:58:13.110Z,49.03
2017-12-01T06:00:41.406Z,46.22
2017-12-01T06:03:09.821Z,50.20
2017-12-01T06:05:38.130Z,42.28
2017-12-01T06:08:06.484Z,49.97
2017-12-01T06:10:34.847Z,58.75
2017-12-01T06:13:03.949Z,48.78
2017-12-01T06:15:32.296Z,49.47
2017-12-01T06:18:00.681Z,59.03
2017-12-01T06:20:29.027Z,57.00
2017-12-01T06:22:57.324Z,54.90
2017-12-01T06:25:25.839Z,53.10
2017-12-01T06:27:54.154Z,48.65
2017-12-01T06:30:22.539Z,45.95
2017-12-01T06:32:50.872Z,48.42
2017-12-01T06:35:19.234Z,47.05
2017-12-01T06:37:47.580Z,48.55
2017-12-01T06:40:15.949Z,43.30
2017-12-01T06:42:44.329Z,43.78
2017-12-01T06:45:12.823Z,49.17
2017-12-01T06:47:41.330Z,46.13
2017-12-01T06:50:09.689Z,45.95
2017-12-01T06:52:38.050Z,50.33
2017-12-01T06:55:06.391Z,42.92
2017-12-01T06:57:34.703Z,43.65
2017-12-01T07:00:03.047Z,41.78
2017-12-01T07:02:31.379Z,46.42
2017-12-01T07:04:59.702Z,47.60
2017-12-01T07:07:28.023Z,47.60
2017-12-01T07:09:56.846Z,50.78
2017-12-01T07:12:25.192Z,43.90
2017-12-01T07:14:53.600Z,39.53
2017-12-01T07:17:21.985Z,41.45
2017-12-01T07:19:50.303Z,43.45
2017-12-01T07:22:18.677Z,46.80
2017-12-01T07:24:47.029Z,40.58
2017-12-01T07:27:15.341Z,44.00
2017-12-01T07:29:43.666Z,51.30
2017-12-01T07:32:12.276Z,54.83
2017-12-01T07:34:41.346Z,47.42
2017-12-01T07:37:09.725Z,46.13
2017-12-01T07:39:38.104Z,44.63
2017-12-01T07:42:06.434Z,46.22
2017-12-01T07:47:43.151Z,40.65
2017-12-01T07:50:11.580Z,45.10
2017-12-01T07:52:40.660Z,44.15
2017-12-01T07:55:09.008Z,46.33
2017-12-01T07:57:37.392Z,47.28
2017-12-01T08:00:06.491Z,47.55
2017-12-01T08:02:34.823Z,51.20
2017-12-01T08:05:03.166Z,44.20
2017-12-01T08:07:32.885Z,40.75
2017-12-01T08:10:01.230Z,45.53
2017-12-01T08:12:30.144Z,45.03
2017-12-01T08:14:58.500Z,45.17
2017-12-01T08:17:31.033Z,42.62
2017-12-01T08:20:00.127Z,53.22
2017-12-01T08:22:59.245Z,46.78
2017-12-01T08:25:32.111Z,49.90
2017-12-01T08:28:01.728Z,48.72
2017-12-01T08:30:30.072Z,50.38
2017-12-01T08:32:58.472Z,48.70
2017-12-01T08:35:26.783Z,48.87
2017-12-01T08:37:55.175Z,40.25
2017-12-01T08:40:23.587Z,42.40
2017-12-01T08:42:52.072Z,48.78
2017-12-01T08:45:20.489Z,41.42
2017-12-01T08:47:48.812Z,40.05
2017-12-01T08:50:17.632Z,49.85
2017-12-01T08:52:45.991Z,53.67
2017-12-01T08:55:14.339Z,43.72
2017-12-01T08:57:42.676Z,43.90
2017-12-01T09:00:11.778Z,37.00
2017-12-01T09:02:40.120Z,39.28
2017-12-01T09:05:08.472Z,40.50
2017-12-01T09:07:36.903Z,40.17
2017-12-01T09:10:06.097Z,37.63
2017-12-01T09:12:34.817Z,41.20
2017-12-01T09:15:03.136Z,41.60
2017-12-01T09:17:31.449Z,41.08
2017-12-01T09:20:00.548Z,39.92
2017-12-01T09:22:29.621Z,38.78
2017-12-01T09:24:57.925Z,40.15
2017-12-01T09:27:27.053Z,39.83
2017-12-01T09:29:55.415Z,36.35
2017-12-01T09:32:23.759Z,33.40
2017-12-01T09:34:52.306Z,33.20
2017-12-01T09:37:20.712Z,39.73
2017-12-01T09:39:49.006Z,31.77
2017-12-01T09:42:18.137Z,35.77
2017-12-01T09:44:46.510Z,36.00
2017-12-01T09:47:14.828Z,33.63
2017-12-01T09:49:43.221Z,37.63
2017-12-01T09:52:11.564Z,36.13
2017-12-01T09:54:39.894Z,38.50
2017-12-01T09:57:08.316Z,33.67
2017-12-01T09:59:36.632Z,36.07
2017-12-01T10:02:04.981Z,32.07
2017-12-01T10:04:33.301Z,32.33
2017-12-01T10:07:01.636Z,31.30
2017-12-01T10:09:29.945Z,39.77
2017-12-01T10:11:58.291Z,31.93
2017-12-01T10:14:26.592Z,32.60
2017-12-01T10:16:54.942Z,37.80
2017-12-01T10:19:23.461Z,39.50
2017-12-01T10:21:51.798Z,29.20
2017-12-01T10:24:20.132Z,36.67
2017-12-01T10:26:48.494Z,36.78
2017-12-01T10:29:16.834Z,27.67
2017-12-01T10:31:45.139Z,32.60
2017-12-01T10:34:13.505Z,35.65
2017-12-01T10:36:41.825Z,32.13
2017-12-01T10:39:10.335Z,32.30
2017-12-01T10:41:38.929Z,34.63
2017-12-01T10:44:07.248Z,27.80
2017-12-01T10:46:35.556Z,33.70
2017-12-01T10:49:04.129Z,30.60
2017-12-01T10:51:32.436Z,32.23
2017-12-01T10:54:00.756Z,31.90
2017-12-01T10:56:29.138Z,30.87
2017-12-01T10:58:57.509Z,28.13
2017-12-01T11:01:25.890Z,33.17
2017-12-01T11:03:54.532Z,26.60
2017-12-01T11:06:22.880Z,29.73
2017-12-01T11:08:51.205Z,24.40
2017-12-01T11:11:19.570Z,30.73
2017-12-01T11:13:48.678Z,35.87
2017-12-01T11:16:17.740Z,27.20
2017-12-01T11:18:46.115Z,38.37
2017-12-01T11:21:14.455Z,29.17
2017-12-01T11:23:42.810Z,30.63
2017-12-01T11:26:11.221Z,29.93
2017-12-01T11:28:39.557Z,32.67
2017-12-01T11:31:08.646Z,32.17
2017-12-01T11:33:37.810Z,30.00
2017-12-01T11:36:06.138Z,28.90
2017-12-01T11:38:34.453Z,26.67
2017-12-01T11:41:03.601Z,28.87
2017-12-01T11:43:32.688Z,36.53
2017-12-01T11:46:01.797Z,33.03
2017-12-01T11:48:30.992Z,32.07
2017-12-01T11:50:59.506Z,35.05
2017-12-01T11:53:27.930Z,35.45
2017-12-01T11:55:56.298Z,33.77
2017-12-01T11:58:25.418Z,36.60
2017-12-01T12:00:55.307Z,33.20
2017-12-01T12:03:24.561Z,38.95
2017-12-01T12:05:52.911Z,41.17
2017-12-01T12:08:22.020Z,33.08
2017-12-01T12:10:50.698Z,35.95
2017-12-01T12:13:19.831Z,35.87
2017-12-01T12:15:48.161Z,36.47
2017-12-01T12:18:16.519Z,34.23
2017-12-01T12:20:44.868Z,39.40
2017-12-01T12:23:13.479Z,35.67
2017-12-01T12:25:41.791Z,34.77
2017-12-01T12:28:10.910Z,37.27
2017-12-01T12:30:39.258Z,35.83
2017-12-01T12:33:08.177Z,45.20
2017-12-01T12:35:36.563Z,39.95
2017-12-01T12:38:04.879Z,45.08
2017-12-01T12:40:33.265Z,39.13
2017-12-01T12:43:01.614Z,42.40
2017-12-01T12:45:29.973Z,44.65
2017-12-01T12:47:58.321Z,40.38
2017-12-01T12:50:27.416Z,37.92
2017-12-01T12:52:55.779Z,36.72
2017-12-01T12:55:24.303Z,53.85
2017-12-01T12:57:53.397Z,50.00
2017-12-01T13:00:21.715Z,42.15
2017-12-01T13:02:50.100Z,36.88
2017-12-01T13:05:18.460Z,49.33
2017-12-01T13:07:46.803Z,40.00
2017-12-01T13:10:15.957Z,40.25
2017-12-01T13:12:44.281Z,41.80
2017-12-01T13:15:12.608Z,41.00
2017-12-01T13:17:41.784Z,40.75
2017-12-01T13:20:10.136Z,38.10
2017-12-01T13:22:39.434Z,48.53
2017-12-01T13:25:07.821Z,43.13
2017-12-01T13:27:36.323Z,36.15
2017-12-01T13:30:04.683Z,41.00
2017-12-01T13:32:33.783Z,40.20
2017-12-01T13:35:02.177Z,44.33
2017-12-01T13:37:30.522Z,39.78
2017-12-01T13:39:59.009Z,38.75
2017-12-01T13:42:27.353Z,37.60
2017-12-01T13:44:55.764Z,48.55
2017-12-01T13:47:24.162Z,41.28
2017-12-01T13:49:52.536Z,39.43
2017-12-01T13:52:20.896Z,39.70
2017-12-01T13:54:49.279Z,41.23
2017-12-01T13:57:17.657Z,42.83
2017-12-01T13:59:46.766Z,36.28
2017-12-01T14:02:16.009Z,39.92
2017-12-01T14:04:45.146Z,43.35
2017-12-01T14:07:14.284Z,42.25
2017-12-01T14:09:42.668Z,43.72
2017-12-01T14:12:11.030Z,47.65
2017-12-01T14:14:39.429Z,36.78
2017-12-01T14:17:07.871Z,40.38
2017-12-01T14:19:36.198Z,39.05
2017-12-01T14:22:04.531Z,42.28
2017-12-01T14:24:33.870Z,48.92
2017-12-01T14:27:02.254Z,48.33
2017-12-01T14:29:30.572Z,42.33
2017-12-01T14:31:58.950Z,45.00
2017-12-01T14:34:27.274Z,43.42
2017-12-01T14:36:55.599Z,51.45
2017-12-01T14:39:23.972Z,42.90
2017-12-01T14:41:52.311Z,41.40
2017-12-01T14:44:20.628Z,48.83
2017-12-01T14:46:49.213Z,40.00
2017-12-01T14:49:17.557Z,39.72
2017-12-01T14:51:45.899Z,41.28
2017-12-01T14:54:15.025Z,43.25
2017-12-01T14:56:43.413Z,40.47
2017-12-01T14:59:11.791Z,37.67
2017-12-01T15:01:40.172Z,39.63
2017-12-01T15:04:08.509Z,44.28
2017-12-01T15:06:37.687Z,42.65
2017-12-01T15:09:06.225Z,40.38
2017-12-01T15:11:34.608Z,42.88
2017-12-01T15:14:02.952Z,36.25
2017-12-01T15:16:31.356Z,37.55
2017-12-01T15:18:59.700Z,37.70
2017-12-01T15:21:28.008Z,36.38
2017-12-01T15:23:56.432Z,36.08
2017-12-01T15:26:24.729Z,36.63
2017-12-01T15:28:53.045Z,38.63
2017-12-01T15:31:21.747Z,44.60
2017-12-01T15:33:50.112Z,46.22
2017-12-01T15:36:18.428Z,44.17
2017-12-01T15:38:46.771Z,40.38
2017-12-01T15:41:15.117Z,42.42
2017-12-01T15:43:44.242Z,38.50
2017-12-01T15:46:13.405Z,44.80
2017-12-01T15:48:41.756Z,38.25
2017-12-01T15:51:10.089Z,43.38
2017-12-01T15:53:38.812Z,37.58
2017-12-01T15:56:07.156Z,37.53
2017-12-01T15:58:36.263Z,44.35
2017-12-01T16:01:04.793Z,41.37
2017-12-01T16:03:33.173Z,32.95
2017-12-01T16:06:01.496Z,29.50
2017-12-01T16:08:29.866Z,30.77
2017-12-01T16:10:58.967Z,33.38
2017-12-01T16:13:28.068Z,33.72
2017-12-01T16:15:56.813Z,36.20
2017-12-01T16:18:25.167Z,34.95
2017-12-01T16:20:53.512Z,37.65
2017-12-01T16:23:22.628Z,40.88
2017-12-01T16:25:50.943Z,29.30
2017-12-01T16:28:19.349Z,33.70
2017-12-01T16:30:48.454Z,32.90
2017-12-01T16:33:17.590Z,34.75
2017-12-01T16:35:45.898Z,37.95
2017-12-01T16:38:14.632Z,42.75
2017-12-01T16:40:42.984Z,34.88
2017-12-01T16:43:12.087Z,33.10
2017-12-01T16:45:41.232Z,34.00
2017-12-01T16:48:09.583Z,33.60
2017-12-01T16:50:37.947Z,38.00
2017-12-01T16:53:07.056Z,31.00
2017-12-01T16:55:35.349Z,38.80
2017-12-01T16:58:03.655Z,33.28
2017-12-01T17:00:32.076Z,30.40
2017-12-01T17:03:01.209Z,54.03
2017-12-01T17:05:29.546Z,34.47
2017-12-01T17:07:58.691Z,35.95
2017-12-01T17:10:27.103Z,43.22
2017-12-01T17:12:55.444Z,40.25
2017-12-01T17:15:23.843Z,36.83
2017-12-01T17:17:52.197Z,32.72
2017-12-01T17:20:20.613Z,34.72
2017-12-01T17:22:49.355Z,34.30
2017-12-01T17:25:17.707Z,32.08
2017-12-01T17:27:46.796Z,27.85
2017-12-01T17:30:15.137Z,36.33
2017-12-01T17:32:43.503Z,36.55
2017-12-01T17:35:12.661Z,33.55
2017-12-01T17:37:41.867Z,37.72
2017-12-01T17:40:10.971Z,39.20
2017-12-01T17:42:39.342Z,29.12
2017-12-01T17:45:08.521Z,27.70
2017-12-01T17:47:36.837Z,22.13
2017-12-01T17:50:05.238Z,28.48
2017-12-01T17:52:33.662Z,28.65
2017-12-01T17:55:02.778Z,32.45
2017-12-01T17:57:31.876Z,23.12
2017-12-01T18:00:00.224Z,26.02
2017-12-01T18:02:28.602Z,33.10
2017-12-01T18:04:57.734Z,27.62
2017-12-01T18:07:26.534Z,32.28
2017-12-01T18:09:54.868Z,26.05
2017-12-01T18:12:23.211Z,27.80
2017-12-01T18:14:51.625Z,30.27
2017-12-01T18:17:19.950Z,25.20
2017-12-01T18:19:48.296Z,30.37
2017-12-01T18:22:17.414Z,24.45
2017-12-01T18:24:45.738Z,33.90
2017-12-01T18:27:14.070Z,24.73
2017-12-01T18:29:42.578Z,30.15
2017-12-01T18:32:10.931Z,26.77
2017-12-01T18:34:39.269Z,27.67
2017-12-01T18:37:07.889Z,29.87
2017-12-01T18:39:36.297Z,31.70
2017-12-01T18:42:04.697Z,26.60
2017-12-01T18:44:33.112Z,35.83
2017-12-01T18:47:01.436Z,32.33
2017-12-01T18:49:29.914Z,34.63
2017-12-01T18:51:58.384Z,29.75
2017-12-01T18:54:26.795Z,25.45
2017-12-01T18:56:55.119Z,30.27
2017-12-01T18:59:24.244Z,26.70
2017-12-01T19:01:52.593Z,30.95
2017-12-01T19:04:21.734Z,32.15
2017-12-01T19:06:50.099Z,49.08
2017-12-01T19:09:18.456Z,39.20
2017-12-01T19:11:47.570Z,32.30
2017-12-01T19:14:16.333Z,35.15
2017-12-01T19:16:45.428Z,34.35
2017-12-01T19:19:13.868Z,38.97
2017-12-01T19:21:42.254Z,40.30
2017-12-01T19:24:10.582Z,37.88
2017-12-01T19:26:39.683Z,40.33
2017-12-01T19:29:08.781Z,38.30
2017-12-01T19:31:37.111Z,33.03
2017-12-01T19:34:05.476Z,42.25
2017-12-01T19:36:33.913Z,45.30
2017-12-01T19:39:02.231Z,41.28
2017-12-01T19:41:30.607Z,43.45
2017-12-01T19:43:59.047Z,41.58
2017-12-01T19:48:54.655Z,45.03
2017-12-01T19:51:23.003Z,47.95
2017-12-01T19:53:51.341Z,46.78
2017-12-01T19:56:19.748Z,47.58
2017-12-01T19:58:48.422Z,49.40
2017-12-01T20:01:16.789Z,51.28
2017-12-01T20:03:45.155Z,48.85
2017-12-01T20:06:14.293Z,51.55
2017-12-01T20:08:42.604Z,45.20
2017-12-01T20:11:10.923Z,55.83
2017-12-01T20:13:39.293Z,44.85
2017-12-01T20:16:23.269Z,47.33
2017-12-01T20:18:51.700Z,51.63
2017-12-01T20:21:20.787Z,46.28
2017-12-01T20:23:49.120Z,47.62
2017-12-01T20:26:17.509Z,46.37
2017-12-01T20:28:45.854Z,46.85
2017-12-01T20:31:14.183Z,43.58
2017-12-01T20:33:42.558Z,34.92
2017-12-01T20:36:10.908Z,52.53
2017-12-01T20:38:39.238Z,46.50
2017-12-01T20:41:07.769Z,52.60
2017-12-01T20:43:36.075Z,62.80
2017-12-01T20:46:04.369Z,45.70
2017-12-01T20:48:32.731Z,47.53
2017-12-01T20:51:01.148Z,46.20
2017-12-01T20:53:30.217Z,44.17
2017-12-01T20:55:58.554Z,45.55
2017-12-01T20:58:26.881Z,52.83
2017-12-01T21:00:55.239Z,58.47
2017-12-01T21:03:23.823Z,51.53
2017-12-01T21:05:52.508Z,49.17
2017-12-01T21:08:20.876Z,57.13
2017-12-01T21:10:49.232Z,55.70
2017-12-01T21:13:17.552Z,75.90
2017-12-01T21:15:45.907Z,57.58
2017-12-01T21:18:14.314Z,48.92
2017-12-01T21:20:42.606Z,51.35
2017-12-01T21:23:10.925Z,40.30
2017-12-01T21:25:39.344Z,42.33
2017-12-01T21:28:07.648Z,47.13
2017-12-01T21:30:35.991Z,39.35
2017-12-01T21:33:04.401Z,37.60
2017-12-01T21:35:32.705Z,37.78
2017-12-01T21:38:01.058Z,39.75
2017-12-01T21:40:29.408Z,41.92
2017-12-01T21:42:57.748Z,44.85
2017-12-01T21:45:26.855Z,40.20
2017-12-01T21:47:55.287Z,37.72
2017-12-01T21:50:23.616Z,43.30
2017-12-01T21:52:51.972Z,39.67
2017-12-01T21:55:21.163Z,43.08
2017-12-01T21:57:49.476Z,42.05
2017-12-01T22:00:17.837Z,42.88
2017-12-01T22:02:46.214Z,47.03
2017-12-01T22:05:14.545Z,43.20
2017-12-01T22:07:42.899Z,41.75
2017-12-01T22:10:11.523Z,41.85
2017-12-01T22:12:39.817Z,36.92
2017-12-01T22:15:08.941Z,44.78
2017-12-01T22:17:37.340Z,38.42
2017-12-01T22:20:05.650Z,38.90
2017-12-01T22:22:33.962Z,39.35
2017-12-01T22:25:03.113Z,33.97
2017-12-01T22:27:31.458Z,36.05
2017-12-01T22:29:59.810Z,33.83
2017-12-01T22:32:29.025Z,31.55
2017-12-01T22:34:57.345Z,30.73
2017-12-01T22:37:25.701Z,36.65
2017-12-01T22:39:54.024Z,35.45
2017-12-01T22:42:22.342Z,37.67
2017-12-01T22:44:50.641Z,35.65
2017-12-01T22:47:18.992Z,33.55
2017-12-01T22:49:47.358Z,35.90
2017-12-01T22:54:49.198Z,37.38
2017-12-01T22:57:17.487Z,42.67
2017-12-01T22:59:45.834Z,48.85
2017-12-01T23:02:14.209Z,40.65
2017-12-01T23:04:42.517Z,41.97
2017-12-01T23:07:10.871Z,31.62
2017-12-01T23:09:39.220Z,37.92
2017-12-01T23:12:07.558Z,35.03
2017-12-01T23:14:35.868Z,40.90
2017-12-01T23:17:04.451Z,39.05
2017-12-01T23:19:33.562Z,39.65
2017-12-01T23:22:01.896Z,35.60
2017-12-01T23:24:30.240Z,35.22
2017-12-01T23:26:58.588Z,31.17
2017-12-01T23:29:27.681Z,40.05
2017-12-01T23:31:56.801Z,35.30
2017-12-01T23:36:58.772Z,34.00
2017-12-01T23:39:27.194Z,32.70
2017-12-01T23:41:55.504Z,32.70
2017-12-01T23:44:23.864Z,35.70
2017-12-01T23:46:52.162Z,38.75
2017-12-01T23:49:21.263Z,31.87
2017-12-01T23:51:50.417Z,35.30
2017-12-01T23:54:19.591Z,32.13
2017-12-01T23:56:47.969Z,29.67
2017-12-01T23:59:16.360Z,38.97
